createdAt,value
2023-07-03T00:00:42.325Z,3.55
2023-07-03T00:02:48.167Z,3.60
2023-07-03T00:04:51.729Z,3.60
2023-07-03T00:06:54.628Z,4.20
2023-07-03T00:08:57.308Z,5.05
2023-07-03T00:11:04.850Z,4.72
2023-07-03T00:13:09.375Z,4.65
2023-07-03T00:15:13.101Z,4.80
2023-07-03T00:17:15.901Z,4.10
2023-07-03T00:19:19.711Z,4.68
2023-07-03T00:21:22.708Z,5.80
2023-07-03T00:23:27.730Z,5.45
2023-07-03T00:25:30.673Z,4.18
2023-07-03T00:27:33.230Z,4.63
2023-07-03T00:29:35.964Z,4.13
2023-07-03T00:31:39.252Z,4.38
2023-07-03T00:33:41.864Z,4.43
2023-07-03T00:35:47.017Z,4.85
2023-07-03T00:37:50.096Z,4.88
2023-07-03T00:39:52.626Z,5.00
2023-07-03T00:41:55.336Z,4.70
2023-07-03T00:44:00.045Z,4.78
2023-07-03T00:46:02.596Z,3.80
2023-07-03T00:48:06.048Z,4.90
2023-07-03T00:50:11.958Z,4.47
2023-07-03T00:52:16.503Z,4.60
2023-07-03T00:54:19.651Z,4.30
2023-07-03T00:56:22.406Z,4.18
2023-07-03T00:58:28.200Z,4.30
2023-07-03T01:00:37.870Z,4.93
2023-07-03T01:02:50.463Z,4.63
2023-07-03T01:07:04.535Z,3.97
2023-07-03T01:09:12.799Z,4.25
2023-07-03T01:11:16.306Z,4.75
2023-07-03T01:13:21.354Z,4.57
2023-07-03T01:15:30.624Z,4.78
2023-07-03T01:17:35.794Z,4.20
2023-07-03T01:19:43.024Z,4.38
2023-07-03T01:22:12.105Z,4.30
2023-07-03T01:24:25.106Z,4.90
2023-07-03T01:26:29.417Z,5.38
2023-07-03T01:28:34.061Z,4.82
2023-07-03T01:30:40.578Z,5.25
2023-07-03T01:32:46.919Z,4.57
2023-07-03T01:34:55.014Z,4.47
2023-07-03T01:37:00.145Z,4.50
2023-07-03T01:39:04.552Z,4.50
2023-07-03T01:41:07.619Z,4.78
2023-07-03T01:43:12.353Z,5.30
2023-07-03T01:45:16.054Z,4.50
2023-07-03T01:47:19.676Z,5.25
2023-07-03T01:49:22.647Z,4.75
2023-07-03T01:51:38.908Z,5.40
2023-07-03T01:54:14.022Z,4.18
2023-07-03T01:56:40.587Z,5.43
2023-07-03T01:59:10.059Z,5.60
2023-07-03T02:01:23.082Z,6.07
2023-07-03T02:03:26.400Z,6.40
2023-07-03T02:05:32.582Z,6.82
2023-07-03T02:07:37.929Z,6.28
2023-07-03T02:09:41.751Z,5.97
2023-07-03T02:11:48.415Z,5.68
2023-07-03T02:13:51.877Z,5.07
2023-07-03T02:15:57.592Z,6.35
2023-07-03T02:18:00.310Z,5.55
2023-07-03T02:20:04.313Z,6.30
2023-07-03T02:22:07.607Z,6.57
2023-07-03T02:24:12.865Z,5.97
2023-07-03T02:26:17.421Z,5.85
2023-07-03T02:28:20.731Z,5.85
2023-07-03T02:30:24.004Z,5.32
2023-07-03T02:32:37.171Z,5.30
2023-07-03T02:34:41.191Z,5.82
2023-07-03T02:36:48.198Z,6.80
2023-07-03T02:38:51.471Z,7.13
2023-07-03T02:40:54.413Z,6.18
2023-07-03T02:42:57.024Z,6.00
2023-07-03T02:45:01.308Z,6.15
2023-07-03T02:47:06.610Z,5.57
2023-07-03T02:49:10.342Z,4.78
2023-07-03T02:51:14.499Z,4.85
2023-07-03T02:53:19.828Z,5.20
2023-07-03T02:55:23.067Z,6.43
2023-07-03T02:57:25.831Z,7.10
2023-07-03T02:59:31.540Z,7.03
2023-07-03T03:01:34.861Z,6.07
2023-07-03T03:03:38.211Z,5.70
2023-07-03T03:05:41.506Z,5.72
2023-07-03T03:07:44.463Z,5.35
2023-07-03T03:09:47.715Z,5.40
2023-07-03T03:11:50.567Z,4.15
2023-07-03T03:13:53.404Z,4.43
2023-07-03T03:15:57.658Z,4.07
2023-07-03T03:18:00.289Z,4.72
2023-07-03T03:20:03.508Z,5.88
2023-07-03T03:22:06.260Z,6.50
2023-07-03T03:24:09.062Z,5.78
2023-07-03T03:26:11.589Z,4.82
2023-07-03T03:28:14.863Z,7.28
2023-07-03T03:30:18.240Z,6.82
2023-07-03T03:32:22.873Z,6.43
2023-07-03T03:34:25.494Z,7.68
2023-07-03T03:36:29.185Z,6.53
2023-07-03T03:38:31.932Z,6.43
2023-07-03T03:40:35.701Z,5.68
2023-07-03T03:42:38.912Z,6.43
2023-07-03T03:44:42.081Z,6.68
2023-07-03T03:46:45.182Z,6.35
2023-07-03T03:48:48.599Z,5.60
2023-07-03T03:50:52.920Z,6.43
2023-07-03T03:52:55.829Z,6.53
2023-07-03T03:55:00.292Z,6.60
2023-07-03T03:57:02.926Z,5.97
2023-07-03T03:59:06.123Z,7.50
2023-07-03T04:01:08.837Z,7.20
2023-07-03T04:03:12.382Z,6.88
2023-07-03T04:05:15.486Z,6.88
2023-07-03T04:07:18.183Z,7.18
2023-07-03T04:09:21.431Z,6.38
2023-07-03T04:11:24.951Z,6.78
2023-07-03T04:13:27.829Z,7.05
2023-07-03T04:15:37.297Z,5.88
2023-07-03T04:17:40.140Z,5.63
2023-07-03T04:19:42.992Z,5.68
2023-07-03T04:21:49.176Z,6.28
2023-07-03T04:23:51.903Z,6.45
2023-07-03T04:25:55.057Z,5.78
2023-07-03T04:27:57.513Z,6.43
2023-07-03T04:30:00.798Z,6.80
2023-07-03T04:32:04.544Z,6.05
2023-07-03T04:34:07.828Z,6.40
2023-07-03T04:36:14.048Z,6.05
2023-07-03T04:38:20.396Z,5.65
2023-07-03T04:40:23.529Z,5.05
2023-07-03T04:42:27.339Z,4.15
2023-07-03T04:44:29.932Z,4.40
2023-07-03T04:46:33.462Z,4.78
2023-07-03T04:48:36.221Z,4.07
2023-07-03T04:50:39.020Z,4.43
2023-07-03T04:52:43.083Z,3.95
2023-07-03T04:54:45.860Z,4.00
2023-07-03T04:56:49.690Z,4.00
2023-07-03T04:58:53.572Z,3.92
2023-07-03T05:00:57.257Z,4.05
2023-07-03T05:03:04.386Z,3.65
2023-07-03T05:05:08.450Z,3.50
2023-07-03T05:07:11.392Z,3.70
2023-07-03T05:09:14.930Z,3.75
2023-07-03T05:11:17.858Z,4.13
2023-07-03T05:13:20.781Z,4.00
2023-07-03T05:15:25.898Z,4.15
2023-07-03T05:17:29.199Z,3.95
2023-07-03T05:19:34.067Z,3.78
2023-07-03T05:21:37.237Z,4.32
2023-07-03T05:23:40.253Z,3.42
2023-07-03T05:25:44.159Z,3.75
2023-07-03T05:27:48.184Z,3.50
2023-07-03T05:29:51.021Z,3.63
2023-07-03T05:31:54.032Z,4.32
2023-07-03T05:33:56.978Z,3.85
2023-07-03T05:36:02.429Z,3.90
2023-07-03T05:38:06.243Z,3.90
2023-07-03T05:40:10.593Z,3.97
2023-07-03T05:42:15.949Z,3.38
2023-07-03T05:44:18.673Z,3.30
2023-07-03T05:46:21.802Z,4.40
2023-07-03T05:48:26.581Z,3.33
2023-07-03T05:50:29.927Z,3.70
2023-07-03T05:52:35.345Z,3.58
2023-07-03T05:54:38.148Z,4.03
2023-07-03T05:56:40.865Z,3.50
2023-07-03T05:58:44.426Z,3.30
2023-07-03T06:00:49.015Z,3.45
2023-07-03T06:02:54.381Z,3.22
2023-07-03T06:04:57.272Z,3.28
2023-07-03T06:07:01.480Z,2.85
2023-07-03T06:09:05.802Z,3.30
2023-07-03T06:11:08.832Z,4.00
2023-07-03T06:13:11.691Z,3.80
2023-07-03T06:15:14.258Z,3.33
2023-07-03T06:17:17.058Z,3.42
2023-07-03T06:19:21.118Z,3.35
2023-07-03T06:21:23.832Z,3.58
2023-07-03T06:23:26.476Z,3.25
2023-07-03T06:25:29.037Z,3.20
2023-07-03T06:27:31.664Z,3.50
2023-07-03T06:29:35.266Z,3.65
2023-07-03T06:31:38.826Z,3.67
2023-07-03T06:33:41.574Z,3.75
2023-07-03T06:35:44.260Z,3.55
2023-07-03T06:37:47.430Z,3.50
2023-07-03T06:39:50.242Z,3.60
2023-07-03T06:41:53.102Z,3.78
2023-07-03T06:43:57.704Z,3.63
2023-07-03T06:46:01.018Z,3.83
2023-07-03T06:48:03.801Z,4.07
2023-07-03T06:50:08.028Z,4.50
2023-07-03T06:52:12.099Z,3.90
2023-07-03T06:54:15.032Z,4.28
2023-07-03T06:56:19.727Z,3.90
2023-07-03T06:58:23.648Z,3.92
2023-07-03T07:00:26.584Z,4.50
2023-07-03T07:02:29.335Z,4.45
2023-07-03T07:04:33.607Z,4.20
2023-07-03T07:06:36.918Z,4.50
2023-07-03T07:08:41.145Z,4.10
2023-07-03T07:10:47.705Z,4.30
2023-07-03T07:12:50.471Z,4.60
2023-07-03T07:14:53.147Z,4.70
2023-07-03T07:16:55.970Z,5.22
2023-07-03T07:19:04.016Z,5.07
2023-07-03T07:21:06.514Z,5.95
2023-07-03T07:23:12.528Z,6.13
2023-07-03T07:25:15.840Z,6.43
2023-07-03T07:27:18.712Z,5.25
2023-07-03T07:29:21.303Z,5.30
2023-07-03T07:31:26.937Z,5.47
2023-07-03T07:33:29.637Z,5.47
2023-07-03T07:35:36.827Z,6.30
2023-07-03T07:37:39.941Z,8.10
2023-07-03T07:39:44.635Z,7.93
2023-07-03T07:41:47.811Z,7.10
2023-07-03T07:43:51.697Z,6.65
2023-07-03T07:45:55.196Z,6.93
2023-07-03T07:47:58.073Z,6.82
2023-07-03T07:50:00.670Z,6.13
2023-07-03T07:52:06.089Z,6.53
2023-07-03T07:54:09.209Z,7.00
2023-07-03T07:56:12.880Z,7.28
2023-07-03T07:58:15.832Z,7.40
2023-07-03T08:00:19.380Z,7.40
2023-07-03T08:02:23.556Z,7.18
2023-07-03T08:04:26.731Z,7.55
2023-07-03T08:06:29.970Z,7.18
2023-07-03T08:08:33.673Z,6.95
2023-07-03T08:10:36.705Z,7.18
2023-07-03T08:12:39.624Z,6.45
2023-07-03T08:14:42.509Z,7.22
2023-07-03T08:16:45.771Z,7.28
2023-07-03T08:18:49.999Z,6.97
2023-07-03T08:20:53.544Z,7.65
2023-07-03T08:22:56.191Z,6.35
2023-07-03T08:24:59.003Z,6.38
2023-07-03T08:27:01.910Z,6.30
2023-07-03T08:29:05.043Z,6.43
2023-07-03T08:31:07.854Z,6.80
2023-07-03T08:33:11.228Z,7.10
2023-07-03T08:39:24.069Z,6.90
2023-07-03T08:41:27.121Z,7.75
2023-07-03T08:43:38.083Z,6.53
2023-07-03T08:45:46.479Z,6.78
2023-07-03T08:47:54.127Z,7.25
2023-07-03T08:50:02.335Z,6.57
2023-07-03T08:52:05.630Z,6.88
2023-07-03T08:54:18.888Z,7.10
2023-07-03T08:56:35.839Z,6.32
2023-07-03T08:58:38.625Z,7.25
2023-07-03T09:01:05.907Z,6.63
2023-07-03T09:03:28.779Z,6.68
2023-07-03T09:05:35.203Z,6.20
2023-07-03T09:10:11.586Z,6.65
2023-07-03T09:12:32.671Z,6.97
2023-07-03T09:14:43.967Z,7.28
2023-07-03T09:16:49.073Z,6.68
2023-07-03T09:19:13.165Z,7.93
2023-07-03T09:21:16.752Z,6.75
2023-07-03T09:23:27.626Z,7.72
2023-07-03T09:25:48.132Z,6.65
2023-07-03T09:27:57.622Z,6.78
2023-07-03T09:30:05.273Z,6.97
2023-07-03T09:32:10.134Z,6.53
2023-07-03T09:34:12.958Z,6.97
2023-07-03T09:36:33.431Z,5.88
2023-07-03T09:38:38.116Z,7.30
2023-07-03T09:40:44.290Z,6.82
2023-07-03T09:44:53.767Z,7.35
2023-07-03T09:46:58.616Z,7.47
2023-07-03T09:49:06.746Z,6.90
2023-07-03T09:51:22.468Z,7.00
2023-07-03T09:53:29.219Z,7.70
2023-07-03T09:55:34.246Z,7.20
2023-07-03T09:57:39.970Z,6.93
2023-07-03T09:59:42.626Z,7.13
2023-07-03T10:08:31.073Z,6.82
2023-07-03T10:13:00.415Z,7.25
2023-07-03T10:15:07.996Z,7.20
2023-07-03T10:17:14.533Z,8.13
2023-07-03T10:19:19.071Z,7.40
2023-07-03T10:21:23.472Z,6.70
2023-07-03T10:23:34.578Z,7.43
2023-07-03T10:25:44.593Z,6.95
2023-07-03T10:27:52.826Z,7.10
2023-07-03T10:29:57.397Z,6.50
2023-07-03T10:32:08.073Z,7.53
2023-07-03T10:34:41.108Z,7.63
2023-07-03T10:36:46.717Z,8.10
2023-07-03T10:38:49.947Z,7.93
2023-07-03T10:41:05.313Z,7.00
2023-07-03T10:43:12.543Z,7.95
2023-07-03T10:45:17.388Z,6.80
2023-07-03T10:47:49.031Z,7.25
2023-07-03T10:49:53.338Z,7.38
2023-07-03T10:52:07.398Z,7.25
2023-07-03T10:54:19.855Z,7.68
2023-07-03T10:58:46.651Z,7.15
2023-07-03T11:01:12.361Z,7.35
2023-07-03T11:03:33.774Z,7.93
2023-07-03T11:05:54.370Z,7.60
2023-07-03T11:08:11.340Z,8.15
2023-07-03T11:10:34.844Z,7.07
2023-07-03T11:13:00.109Z,8.00
2023-07-03T11:15:16.064Z,7.22
2023-07-03T11:20:27.771Z,8.20
2023-07-03T11:25:09.326Z,7.63
2023-07-03T11:28:05.084Z,7.18
2023-07-03T11:30:10.539Z,7.07
2023-07-03T11:32:16.158Z,7.82
2023-07-03T11:44:16.502Z,7.65
2023-07-03T11:46:24.100Z,7.25
2023-07-03T11:48:33.297Z,7.40
2023-07-03T11:50:36.615Z,7.22
2023-07-03T11:52:47.589Z,7.68
2023-07-03T11:55:09.490Z,7.28
2023-07-03T11:58:09.581Z,7.55
2023-07-03T12:00:19.801Z,7.72
2023-07-03T12:02:43.239Z,6.90
2023-07-03T12:04:57.901Z,7.22
2023-07-03T12:07:00.910Z,7.07
2023-07-03T12:09:22.550Z,7.22
2023-07-03T12:11:28.756Z,7.40
2023-07-03T12:15:58.308Z,6.75
2023-07-03T12:18:04.376Z,6.78
2023-07-03T12:20:13.635Z,6.38
2023-07-03T12:22:20.623Z,7.28
2023-07-03T12:24:27.788Z,6.95
2023-07-03T12:26:31.058Z,6.40
2023-07-03T12:28:34.472Z,5.82
2023-07-03T12:30:39.202Z,6.05
2023-07-03T12:32:42.363Z,6.50
2023-07-03T12:34:45.310Z,6.55
2023-07-03T12:36:54.097Z,6.30
2023-07-03T12:39:10.860Z,5.75
2023-07-03T12:41:14.156Z,5.88
2023-07-03T12:43:19.359Z,6.90
2023-07-03T12:45:25.594Z,6.18
2023-07-03T12:47:29.628Z,6.00
2023-07-03T12:49:32.546Z,6.78
2023-07-03T12:51:51.496Z,6.10
2023-07-03T12:53:54.214Z,5.88
2023-07-03T12:56:03.947Z,5.82
2023-07-03T12:58:08.842Z,6.43
2023-07-03T13:00:18.641Z,7.10
2023-07-03T13:02:27.832Z,5.68
2023-07-03T13:04:34.632Z,6.72
2023-07-03T13:06:37.866Z,5.53
2023-07-03T13:08:43.430Z,5.90
2023-07-03T13:11:00.329Z,5.63
2023-07-03T13:13:20.102Z,5.95
2023-07-03T13:15:35.811Z,5.45
2023-07-03T13:17:42.564Z,5.88
2023-07-03T13:19:45.913Z,6.40
2023-07-03T13:21:52.545Z,5.28
2023-07-03T13:23:55.467Z,5.28
2023-07-03T13:25:59.569Z,5.90
2023-07-03T13:28:11.569Z,5.75
2023-07-03T13:30:29.248Z,5.45
2023-07-03T13:32:32.017Z,5.95
2023-07-03T13:35:01.032Z,5.57
2023-07-03T13:37:07.879Z,5.63
2023-07-03T13:39:19.700Z,5.47
2023-07-03T13:41:22.285Z,5.93
2023-07-03T13:43:30.918Z,5.30
2023-07-03T13:45:34.673Z,5.82
2023-07-03T13:47:38.402Z,5.80
2023-07-03T13:49:43.744Z,5.43
2023-07-03T13:51:49.028Z,5.38
2023-07-03T13:53:56.321Z,5.57
2023-07-03T13:56:07.074Z,6.18
2023-07-03T13:58:10.125Z,6.18
2023-07-03T14:00:13.468Z,5.28
2023-07-03T14:02:16.145Z,5.32
2023-07-03T14:04:19.237Z,5.32
2023-07-03T14:06:25.021Z,5.63
2023-07-03T14:08:29.917Z,5.38
2023-07-03T14:10:32.900Z,5.85
2023-07-03T14:12:35.704Z,6.07
2023-07-03T14:14:38.788Z,5.95
2023-07-03T14:16:41.443Z,5.22
2023-07-03T14:18:45.127Z,5.35
2023-07-03T14:20:52.185Z,5.35
2023-07-03T14:22:55.145Z,5.45
2023-07-03T14:24:58.743Z,5.60
2023-07-03T14:27:02.713Z,5.80
2023-07-03T14:29:05.594Z,5.28
2023-07-03T14:31:14.462Z,5.28
2023-07-03T14:33:17.788Z,5.43
2023-07-03T14:35:21.029Z,6.07
2023-07-03T14:37:24.122Z,5.60
2023-07-03T14:39:27.664Z,5.50
2023-07-03T14:41:30.574Z,5.53
2023-07-03T14:43:33.912Z,5.10
2023-07-03T14:45:37.438Z,6.05
2023-07-03T14:47:43.562Z,5.65
2023-07-03T14:49:47.906Z,4.93
2023-07-03T14:51:50.894Z,6.32
2023-07-03T14:53:54.024Z,5.57
2023-07-03T14:56:00.283Z,5.93
2023-07-03T14:58:10.436Z,6.03
2023-07-03T15:00:14.270Z,5.47
2023-07-03T15:02:17.346Z,5.38
2023-07-03T15:04:20.755Z,5.47
2023-07-03T15:06:24.372Z,5.45
2023-07-03T15:08:27.381Z,6.15
2023-07-03T15:10:30.080Z,5.07
2023-07-03T15:12:33.317Z,6.30
2023-07-03T15:14:38.015Z,5.68
2023-07-03T15:16:40.788Z,5.68
2023-07-03T15:18:44.363Z,5.20
2023-07-03T15:20:47.946Z,5.68
2023-07-03T15:22:52.865Z,5.47
2023-07-03T15:24:55.863Z,5.93
2023-07-03T15:26:58.832Z,5.50
2023-07-03T15:29:02.206Z,5.75
2023-07-03T15:31:05.255Z,6.18
2023-07-03T15:33:09.074Z,5.65
2023-07-03T15:35:12.495Z,5.88
2023-07-03T15:37:15.749Z,5.03
2023-07-03T15:39:18.593Z,5.38
2023-07-03T15:41:21.582Z,5.82
2023-07-03T15:43:25.764Z,5.65
2023-07-03T15:45:28.931Z,5.70
2023-07-03T15:47:37.645Z,6.05
2023-07-03T15:49:40.863Z,5.70
2023-07-03T15:51:45.282Z,6.15
2023-07-03T15:53:48.150Z,5.53
2023-07-03T15:56:01.757Z,5.82
2023-07-03T15:58:05.222Z,5.22
2023-07-03T16:00:09.423Z,5.80
2023-07-03T16:02:15.125Z,6.28
2023-07-03T16:04:18.115Z,6.50
2023-07-03T16:06:22.856Z,6.05
2023-07-03T16:08:27.621Z,6.45
2023-07-03T16:10:30.859Z,6.03
2023-07-03T16:12:33.900Z,5.70
2023-07-03T16:14:37.190Z,5.38
2023-07-03T16:16:40.371Z,6.22
2023-07-03T16:18:48.132Z,6.20
2023-07-03T16:20:58.503Z,6.10
2023-07-03T16:23:01.460Z,5.97
2023-07-03T16:25:04.655Z,6.20
2023-07-03T16:27:07.868Z,6.22
2023-07-03T16:29:10.665Z,6.05
2023-07-03T16:31:16.434Z,5.53
2023-07-03T16:33:19.439Z,4.90
2023-07-03T16:35:22.346Z,5.45
2023-07-03T16:37:25.368Z,5.70
2023-07-03T16:39:28.843Z,5.13
2023-07-03T16:41:36.588Z,5.28
2023-07-03T16:43:42.129Z,4.85
2023-07-03T16:45:44.993Z,5.40
2023-07-03T16:47:48.195Z,5.20
2023-07-03T16:49:51.524Z,5.75
2023-07-03T16:51:54.260Z,5.55
2023-07-03T16:53:57.209Z,5.43
2023-07-03T16:56:05.965Z,5.32
2023-07-03T16:58:08.662Z,5.68
2023-07-03T17:00:12.731Z,5.80
2023-07-03T17:02:16.593Z,5.70
2023-07-03T17:04:19.590Z,5.22
2023-07-03T17:06:27.023Z,5.30
2023-07-03T17:08:30.784Z,5.38
2023-07-03T17:10:38.775Z,5.20
2023-07-03T17:12:41.539Z,5.32
2023-07-03T17:14:44.235Z,5.40
2023-07-03T17:16:47.059Z,5.57
2023-07-03T17:18:50.464Z,5.20
2023-07-03T17:20:53.106Z,6.10
2023-07-03T17:22:55.830Z,5.32
2023-07-03T17:24:59.164Z,5.05
2023-07-03T17:27:02.382Z,5.45
2023-07-03T17:29:05.236Z,5.35
2023-07-03T17:31:08.414Z,5.57
2023-07-03T17:33:13.086Z,4.85
2023-07-03T17:35:15.542Z,5.28
2023-07-03T17:37:19.165Z,4.97
2023-07-03T17:39:21.917Z,5.30
2023-07-03T17:41:25.041Z,5.07
2023-07-03T17:43:27.733Z,4.85
2023-07-03T17:45:30.366Z,4.88
2023-07-03T17:47:33.362Z,5.40
2023-07-03T17:49:35.907Z,5.40
2023-07-03T17:51:39.012Z,4.70
2023-07-03T17:53:42.340Z,5.00
2023-07-03T17:55:45.207Z,5.20
2023-07-03T17:57:47.869Z,5.35
2023-07-03T17:59:51.428Z,5.18
2023-07-03T18:01:54.707Z,5.05
2023-07-03T18:03:58.044Z,4.70
2023-07-03T18:06:00.979Z,5.10
2023-07-03T18:08:04.430Z,5.65
2023-07-03T18:10:08.055Z,5.43
2023-07-03T18:12:11.312Z,5.03
2023-07-03T18:14:14.491Z,5.57
2023-07-03T18:16:18.377Z,5.10
2023-07-03T18:18:22.235Z,5.82
2023-07-03T18:20:25.344Z,5.75
2023-07-03T18:22:28.419Z,5.28
2023-07-03T18:24:31.888Z,5.65
2023-07-03T18:26:35.259Z,5.53
2023-07-03T18:28:38.161Z,5.65
2023-07-03T18:30:40.943Z,5.60
2023-07-03T18:32:44.825Z,5.03
2023-07-03T18:34:47.663Z,6.25
2023-07-03T18:36:50.600Z,5.18
2023-07-03T18:38:54.017Z,5.78
2023-07-03T18:41:05.983Z,5.07
2023-07-03T18:43:08.902Z,6.35
2023-07-03T18:45:11.613Z,5.10
2023-07-03T18:47:14.384Z,5.72
2023-07-03T18:49:17.144Z,5.63
2023-07-03T18:51:24.133Z,4.80
2023-07-03T18:53:28.709Z,5.18
2023-07-03T18:55:31.296Z,5.25
2023-07-03T18:57:34.111Z,5.43
2023-07-03T18:59:37.257Z,5.20
2023-07-03T19:01:42.456Z,5.35
2023-07-03T19:03:45.954Z,5.30
2023-07-03T19:05:53.014Z,4.43
2023-07-03T19:07:56.040Z,4.95
2023-07-03T19:10:12.629Z,4.72
2023-07-03T19:12:24.709Z,5.10
2023-07-03T19:16:30.163Z,5.05
2023-07-03T19:18:33.094Z,5.50
2023-07-03T19:20:36.385Z,6.15
2023-07-03T19:22:39.065Z,5.25
2023-07-03T19:24:41.811Z,5.43
2023-07-03T19:26:44.829Z,5.78
2023-07-03T19:28:50.739Z,5.28
2023-07-03T19:30:58.169Z,5.00
2023-07-03T19:33:00.796Z,5.63
2023-07-03T19:35:03.290Z,5.00
2023-07-03T19:37:06.012Z,4.88
2023-07-03T19:39:08.872Z,5.78
2023-07-03T19:41:12.466Z,5.53
2023-07-03T19:43:15.939Z,5.38
2023-07-03T19:45:18.382Z,5.35
2023-07-03T19:47:21.143Z,5.05
2023-07-03T19:49:24.708Z,5.22
2023-07-03T19:51:27.924Z,6.72
2023-07-03T19:53:32.280Z,5.75
2023-07-03T19:55:35.399Z,5.63
2023-07-03T19:57:38.390Z,5.75
2023-07-03T19:59:41.418Z,6.03
2023-07-03T20:01:44.710Z,5.68
2023-07-03T20:03:48.246Z,5.25
2023-07-03T20:05:51.424Z,4.88
2023-07-03T20:07:54.726Z,4.93
2023-07-03T20:09:57.441Z,5.65
2023-07-03T20:12:00.567Z,4.82
2023-07-03T20:14:05.044Z,5.40
2023-07-03T20:16:08.750Z,6.03
2023-07-03T20:18:11.847Z,5.57
2023-07-03T20:20:16.214Z,5.50
2023-07-03T20:22:20.540Z,5.68
2023-07-03T20:24:23.146Z,5.18
2023-07-03T20:26:30.263Z,5.38
2023-07-03T20:28:33.477Z,5.15
2023-07-03T20:30:36.240Z,5.28
2023-07-03T20:32:38.954Z,4.88
2023-07-03T20:34:41.782Z,5.75
2023-07-03T20:36:44.622Z,5.25
2023-07-03T20:38:47.384Z,7.13
2023-07-03T20:41:07.913Z,6.35
2023-07-03T20:43:10.767Z,5.93
2023-07-03T20:45:13.373Z,5.72
2023-07-03T20:47:16.232Z,6.30
2023-07-03T20:49:19.158Z,7.80
2023-07-03T20:51:23.885Z,6.93
2023-07-03T20:53:40.967Z,6.65
2023-07-03T20:55:46.569Z,5.75
2023-07-03T20:57:50.082Z,5.65
2023-07-03T20:59:52.827Z,5.72
2023-07-03T21:01:55.772Z,5.20
2023-07-03T21:04:00.812Z,5.50
2023-07-03T21:06:03.850Z,5.05
2023-07-03T21:08:06.590Z,6.20
2023-07-03T21:10:10.061Z,6.07
2023-07-03T21:12:12.644Z,6.25
2023-07-03T21:14:16.949Z,6.05
2023-07-03T21:16:24.532Z,5.25
2023-07-03T21:18:27.778Z,5.72
2023-07-03T21:20:30.406Z,6.15
2023-07-03T21:22:33.051Z,6.53
2023-07-03T21:24:35.750Z,6.72
2023-07-03T21:26:39.861Z,5.95
2023-07-03T21:28:43.091Z,7.03
2023-07-03T21:30:45.806Z,5.55
2023-07-03T21:32:48.554Z,6.32
2023-07-03T21:34:51.230Z,5.10
2023-07-03T21:36:53.821Z,5.38
2023-07-03T21:38:59.420Z,5.35
2023-07-03T21:41:02.139Z,6.03
2023-07-03T21:43:05.025Z,6.38
2023-07-03T21:45:08.270Z,6.57
2023-07-03T21:47:10.982Z,7.00
2023-07-03T21:49:16.093Z,6.63
2023-07-03T21:51:18.626Z,6.70
2023-07-03T21:53:21.631Z,6.32
2023-07-03T21:55:24.864Z,6.03
2023-07-03T21:57:30.737Z,6.45
2023-07-03T21:59:33.494Z,6.18
2023-07-03T22:01:39.143Z,7.45
2023-07-03T22:03:41.831Z,5.95
2023-07-03T22:05:44.513Z,6.80
2023-07-03T22:07:49.091Z,6.10
2023-07-03T22:09:52.835Z,6.65
2023-07-03T22:11:55.226Z,6.47
2023-07-03T22:13:58.298Z,6.00
2023-07-03T22:16:01.513Z,5.85
2023-07-03T22:18:04.138Z,6.18
2023-07-03T22:20:10.182Z,6.85
2023-07-03T22:22:12.522Z,6.68
2023-07-03T22:24:15.109Z,7.13
2023-07-03T22:26:18.495Z,7.18
2023-07-03T22:28:21.045Z,7.28
2023-07-03T22:30:23.692Z,7.20
2023-07-03T22:32:27.574Z,6.57
2023-07-03T22:34:31.239Z,6.00
2023-07-03T22:36:33.644Z,7.05
2023-07-03T22:38:37.647Z,8.23
2023-07-03T22:40:42.140Z,7.38
2023-07-03T22:42:44.716Z,7.88
2023-07-03T22:44:49.790Z,7.97
2023-07-03T22:46:53.694Z,8.07
2023-07-03T22:48:56.911Z,8.73
2023-07-03T22:51:00.525Z,7.20
2023-07-03T22:53:03.219Z,7.63
2023-07-03T22:55:10.150Z,6.70
2023-07-03T22:57:12.795Z,7.25
2023-07-03T22:59:15.803Z,7.75
2023-07-03T23:01:19.853Z,8.77
2023-07-03T23:03:43.167Z,7.43
2023-07-03T23:06:05.796Z,7.63
2023-07-03T23:08:09.386Z,7.43
2023-07-03T23:10:13.022Z,8.02
2023-07-03T23:12:15.482Z,7.07
2023-07-03T23:14:18.353Z,7.15
2023-07-03T23:16:20.822Z,7.40
2023-07-03T23:18:23.856Z,7.15
2023-07-03T23:20:27.615Z,7.00
2023-07-03T23:22:31.417Z,7.55
2023-07-03T23:24:34.156Z,6.65
2023-07-03T23:26:36.912Z,6.93
2023-07-03T23:28:41.203Z,7.50
2023-07-03T23:30:43.974Z,6.88
2023-07-03T23:32:46.895Z,7.15
2023-07-03T23:34:50.880Z,7.57
2023-07-03T23:36:53.856Z,6.40
2023-07-03T23:38:58.238Z,6.35
2023-07-03T23:41:00.791Z,6.70
2023-07-03T23:43:03.647Z,6.55
2023-07-03T23:45:08.043Z,7.30
2023-07-03T23:47:11.003Z,6.43
2023-07-03T23:49:14.137Z,6.07
2023-07-03T23:51:20.362Z,6.95
2023-07-03T23:53:25.031Z,6.53
2023-07-03T23:55:28.739Z,6.57
2023-07-03T23:57:31.695Z,6.68
2023-07-03T23:59:34.953Z,6.40
